sensor_id;sensor_type;location;lat;lon;timestamp;temperature;humidity
70151;DHT22;57517;43.562;19.540;2024-01-25T00:01:14;52.10;2227.20
70151;DHT22;57517;43.562;19.540;2024-01-25T00:03:40;76.90;2227.20
70151;DHT22;57517;43.562;19.540;2024-01-25T00:06:06;77.00;2227.20
70151;DHT22;57517;43.562;19.540;2024-01-25T00:08:33;77.10;2227.20
70151;DHT22;57517;43.562;19.540;2024-01-25T00:11:01;77.20;2227.20
70151;DHT22;57517;43.562;19.540;2024-01-25T00:13:26;77.10;2227.20
70151;DHT22;57517;43.562;19.540;2024-01-25T00:15:52;77.00;2227.20
70151;DHT22;57517;43.562;19.540;2024-01-25T00:18:18;77.00;2227.20
70151;DHT22;57517;43.562;19.540;2024-01-25T00:20:44;77.00;2227.20
70151;DHT22;57517;43.562;19.540;2024-01-25T00:23:11;77.10;2227.20
70151;DHT22;57517;43.562;19.540;2024-01-25T00:25:37;77.20;2227.20
70151;DHT22;57517;43.562;19.540;2024-01-25T00:28:03;77.30;2227.20
70151;DHT22;57517;43.562;19.540;2024-01-25T00:30:29;77.40;2227.20
70151;DHT22;57517;43.562;19.540;2024-01-25T00:32:56;77.30;2227.20
70151;DHT22;57517;43.562;19.540;2024-01-25T00:35:22;77.40;2227.20
70151;DHT22;57517;43.562;19.540;2024-01-25T00:37:49;77.20;2227.20
70151;DHT22;57517;43.562;19.540;2024-01-25T00:40:15;76.90;2227.20
70151;DHT22;57517;43.562;19.540;2024-01-25T00:42:44;76.90;2227.20
70151;DHT22;57517;43.562;19.540;2024-01-25T00:45:10;76.90;2227.20
70151;DHT22;57517;43.562;19.540;2024-01-25T00:47:37;76.90;2227.20
70151;DHT22;57517;43.562;19.540;2024-01-25T00:50:04;76.80;2227.20
70151;DHT22;57517;43.562;19.540;2024-01-25T00:52:30;52.10;2227.20
70151;DHT22;57517;43.562;19.540;2024-01-25T00:54:56;51.70;2227.20
70151;DHT22;57517;43.562;19.540;2024-01-25T00:57:22;51.80;2227.20
70151;DHT22;57517;43.562;19.540;2024-01-25T00:59:48;51.90;2227.20
70151;DHT22;57517;43.562;19.540;2024-01-25T01:02:14;51.90;2227.20
70151;DHT22;57517;43.562;19.540;2024-01-25T01:04:41;52.00;2227.20
70151;DHT22;57517;43.562;19.540;2024-01-25T01:07:07;51.90;2227.20
70151;DHT22;57517;43.562;19.540;2024-01-25T01:09:34;52.00;2227.20
70151;DHT22;57517;43.562;19.540;2024-01-25T01:12:00;52.10;2227.20
70151;DHT22;57517;43.562;19.540;2024-01-25T01:14:26;76.80;2227.20
70151;DHT22;57517;43.562;19.540;2024-01-25T01:16:51;77.00;2227.20
70151;DHT22;57517;43.562;19.540;2024-01-25T01:19:17;77.00;2227.20
70151;DHT22;57517;43.562;19.540;2024-01-25T01:21:43;77.00;2227.20
70151;DHT22;57517;43.562;19.540;2024-01-25T01:24:13;77.10;2227.20
70151;DHT22;57517;43.562;19.540;2024-01-25T01:26:38;77.20;2227.20
70151;DHT22;57517;43.562;19.540;2024-01-25T01:29:04;77.20;2227.20
70151;DHT22;57517;43.562;19.540;2024-01-25T01:31:30;77.30;2227.20
70151;DHT22;57517;43.562;19.540;2024-01-25T01:33:56;77.20;2227.20
70151;DHT22;57517;43.562;19.540;2024-01-25T01:36:23;77.30;2227.20
70151;DHT22;57517;43.562;19.540;2024-01-25T01:38:49;77.40;2227.20
70151;DHT22;57517;43.562;19.540;2024-01-25T01:41:15;77.40;2227.20
70151;DHT22;57517;43.562;19.540;2024-01-25T01:43:41;77.50;2227.20
70151;DHT22;57517;43.562;19.540;2024-01-25T01:46:27;77.50;2227.20
70151;DHT22;57517;43.562;19.540;2024-01-25T01:48:55;77.50;2227.20
70151;DHT22;57517;43.562;19.540;2024-01-25T01:51:21;77.50;2227.20
70151;DHT22;57517;43.562;19.540;2024-01-25T01:53:47;77.50;2227.20
70151;DHT22;57517;43.562;19.540;2024-01-25T01:56:14;77.40;2227.20
70151;DHT22;57517;43.562;19.540;2024-01-25T01:58:41;77.40;2227.20
70151;DHT22;57517;43.562;19.540;2024-01-25T02:01:07;77.40;2227.20
70151;DHT22;57517;43.562;19.540;2024-01-25T02:03:32;77.40;2227.20
70151;DHT22;57517;43.562;19.540;2024-01-25T02:06:00;77.40;2227.20
70151;DHT22;57517;43.562;19.540;2024-01-25T02:08:29;77.30;2227.20
70151;DHT22;57517;43.562;19.540;2024-01-25T02:10:55;77.30;2227.20
70151;DHT22;57517;43.562;19.540;2024-01-25T02:13:21;77.30;2227.20
70151;DHT22;57517;43.562;19.540;2024-01-25T02:15:47;77.20;2227.20
70151;DHT22;57517;43.562;19.540;2024-01-25T02:18:13;76.90;2227.20
70151;DHT22;57517;43.562;19.540;2024-01-25T02:20:40;77.00;2227.20
70151;DHT22;57517;43.562;19.540;2024-01-25T02:23:06;77.20;2227.20
70151;DHT22;57517;43.562;19.540;2024-01-25T02:25:32;77.30;2227.20
70151;DHT22;57517;43.562;19.540;2024-01-25T02:27:58;77.50;2227.20
70151;DHT22;57517;43.562;19.540;2024-01-25T02:30:23;77.60;2227.20
70151;DHT22;57517;43.562;19.540;2024-01-25T02:32:49;77.50;2227.20
70151;DHT22;57517;43.562;19.540;2024-01-25T02:35:15;77.60;2227.20
70151;DHT22;57517;43.562;19.540;2024-01-25T02:37:41;77.40;2227.20
70151;DHT22;57517;43.562;19.540;2024-01-25T02:40:07;77.20;2227.20
70151;DHT22;57517;43.562;19.540;2024-01-25T02:42:33;77.30;2227.20
70151;DHT22;57517;43.562;19.540;2024-01-25T02:44:59;77.40;2227.20
70151;DHT22;57517;43.562;19.540;2024-01-25T02:47:24;77.40;2227.20
70151;DHT22;57517;43.562;19.540;2024-01-25T02:49:50;77.50;2227.20
70151;DHT22;57517;43.562;19.540;2024-01-25T02:52:16;77.60;2227.20
70151;DHT22;57517;43.562;19.540;2024-01-25T02:54:41;77.60;2227.20
70151;DHT22;57517;43.562;19.540;2024-01-25T02:57:07;77.70;2227.20
70151;DHT22;57517;43.562;19.540;2024-01-25T02:59:33;102.50;2227.20
70151;DHT22;57517;43.562;19.540;2024-01-25T03:01:59;102.40;2227.20
70151;DHT22;57517;43.562;19.540;2024-01-25T03:04:25;102.50;2227.20
70151;DHT22;57517;43.562;19.540;2024-01-25T03:06:50;102.40;2227.20
70151;DHT22;57517;43.562;19.540;2024-01-25T03:09:16;77.70;2227.20
70151;DHT22;57517;43.562;19.540;2024-01-25T03:11:42;77.70;2227.20
70151;DHT22;57517;43.562;19.540;2024-01-25T03:14:08;77.60;2227.20
70151;DHT22;57517;43.562;19.540;2024-01-25T03:16:33;77.60;2227.20
70151;DHT22;57517;43.562;19.540;2024-01-25T03:18:59;77.70;2227.20
70151;DHT22;57517;43.562;19.540;2024-01-25T03:21:25;77.70;2227.20
70151;DHT22;57517;43.562;19.540;2024-01-25T03:23:51;102.50;2227.20
70151;DHT22;57517;43.562;19.540;2024-01-25T03:26:17;102.50;2227.20
70151;DHT22;57517;43.562;19.540;2024-01-25T03:28:43;102.50;2227.20
70151;DHT22;57517;43.562;19.540;2024-01-25T03:31:09;102.50;2227.20
70151;DHT22;57517;43.562;19.540;2024-01-25T03:33:34;102.50;2227.20
70151;DHT22;57517;43.562;19.540;2024-01-25T03:36:04;102.50;2227.20
70151;DHT22;57517;43.562;19.540;2024-01-25T03:38:31;102.50;2227.20
70151;DHT22;57517;43.562;19.540;2024-01-25T03:40:57;102.40;2227.20
70151;DHT22;57517;43.562;19.540;2024-01-25T03:43:24;102.50;2227.20
70151;DHT22;57517;43.562;19.540;2024-01-25T03:45:51;102.50;2227.20
70151;DHT22;57517;43.562;19.540;2024-01-25T03:48:17;77.70;2227.20
70151;DHT22;57517;43.562;19.540;2024-01-25T03:50:43;77.70;2227.20
70151;DHT22;57517;43.562;19.540;2024-01-25T03:53:08;102.40;2227.20
70151;DHT22;57517;43.562;19.540;2024-01-25T03:55:34;102.50;2227.20
70151;DHT22;57517;43.562;19.540;2024-01-25T03:58:00;102.60;2227.20
70151;DHT22;57517;43.562;19.540;2024-01-25T04:00:26;102.50;2227.20
70151;DHT22;57517;43.562;19.540;2024-01-25T04:02:52;102.60;2227.20
70151;DHT22;57517;43.562;19.540;2024-01-25T04:05:17;77.70;2227.20
70151;DHT22;57517;43.562;19.540;2024-01-25T04:07:43;102.40;2227.20
70151;DHT22;57517;43.562;19.540;2024-01-25T04:10:09;77.70;2227.20
70151;DHT22;57517;43.562;19.540;2024-01-25T04:12:35;77.60;2227.20
70151;DHT22;57517;43.562;19.540;2024-01-25T04:15:01;77.60;2227.20
70151;DHT22;57517;43.562;19.540;2024-01-25T04:17:26;77.70;2227.20
70151;DHT22;57517;43.562;19.540;2024-01-25T04:19:52;77.70;2227.20
70151;DHT22;57517;43.562;19.540;2024-01-25T04:22:18;77.50;2227.20
70151;DHT22;57517;43.562;19.540;2024-01-25T04:24:44;77.40;2227.20
70151;DHT22;57517;43.562;19.540;2024-01-25T04:27:12;77.30;2227.20
70151;DHT22;57517;43.562;19.540;2024-01-25T04:29:39;77.50;2227.20
70151;DHT22;57517;43.562;19.540;2024-01-25T04:32:06;77.60;2227.20
70151;DHT22;57517;43.562;19.540;2024-01-25T04:34:31;77.60;2227.20
70151;DHT22;57517;43.562;19.540;2024-01-25T04:36:57;77.70;2227.20
70151;DHT22;57517;43.562;19.540;2024-01-25T04:39:23;102.40;2227.20
70151;DHT22;57517;43.562;19.540;2024-01-25T04:41:49;102.50;2227.20
70151;DHT22;57517;43.562;19.540;2024-01-25T04:44:14;102.50;2227.20
70151;DHT22;57517;43.562;19.540;2024-01-25T04:46:41;77.70;2227.20
70151;DHT22;57517;43.562;19.540;2024-01-25T04:49:07;77.70;2227.20
70151;DHT22;57517;43.562;19.540;2024-01-25T04:51:33;77.60;2227.20
70151;DHT22;57517;43.562;19.540;2024-01-25T04:53:59;77.40;2227.20
70151;DHT22;57517;43.562;19.540;2024-01-25T04:56:24;77.40;2227.20
70151;DHT22;57517;43.562;19.540;2024-01-25T04:58:50;77.30;2227.20
70151;DHT22;57517;43.562;19.540;2024-01-25T05:01:16;77.30;2227.20
70151;DHT22;57517;43.562;19.540;2024-01-25T05:03:42;77.40;2227.20
70151;DHT22;57517;43.562;19.540;2024-01-25T05:06:08;77.50;2227.20
70151;DHT22;57517;43.562;19.540;2024-01-25T05:08:34;77.70;2227.20
70151;DHT22;57517;43.562;19.540;2024-01-25T05:11:00;102.40;2227.20
70151;DHT22;57517;43.562;19.540;2024-01-25T05:13:25;102.50;2227.20
70151;DHT22;57517;43.562;19.540;2024-01-25T05:15:51;102.50;2227.20
70151;DHT22;57517;43.562;19.540;2024-01-25T05:18:17;102.60;2227.20
70151;DHT22;57517;43.562;19.540;2024-01-25T05:20:43;102.60;2227.20
70151;DHT22;57517;43.562;19.540;2024-01-25T05:23:08;102.50;2227.20
70151;DHT22;57517;43.562;19.540;2024-01-25T05:25:34;102.40;2227.20
70151;DHT22;57517;43.562;19.540;2024-01-25T05:28:00;77.50;2227.20
70151;DHT22;57517;43.562;19.540;2024-01-25T05:30:26;77.50;2227.20
70151;DHT22;57517;43.562;19.540;2024-01-25T05:32:52;77.50;2227.20
70151;DHT22;57517;43.562;19.540;2024-01-25T05:35:19;77.20;2227.20
70151;DHT22;57517;43.562;19.540;2024-01-25T05:37:45;77.20;2227.20
70151;DHT22;57517;43.562;19.540;2024-01-25T05:40:11;77.20;2227.20
70151;DHT22;57517;43.562;19.540;2024-01-25T05:42:37;77.10;2227.20
70151;DHT22;57517;43.562;19.540;2024-01-25T05:45:03;77.20;2227.20
70151;DHT22;57517;43.562;19.540;2024-01-25T05:47:30;77.40;2227.20
70151;DHT22;57517;43.562;19.540;2024-01-25T05:49:56;77.50;2227.20
70151;DHT22;57517;43.562;19.540;2024-01-25T05:52:22;77.50;2227.20
70151;DHT22;57517;43.562;19.540;2024-01-25T05:54:49;77.70;2227.20
70151;DHT22;57517;43.562;19.540;2024-01-25T05:57:15;102.40;2227.20
70151;DHT22;57517;43.562;19.540;2024-01-25T05:59:42;102.50;2227.20
70151;DHT22;57517;43.562;19.540;2024-01-25T06:02:08;102.60;2227.20
70151;DHT22;57517;43.562;19.540;2024-01-25T06:04:34;102.50;2227.20
70151;DHT22;57517;43.562;19.540;2024-01-25T06:07:00;102.50;2227.20
70151;DHT22;57517;43.562;19.540;2024-01-25T06:09:26;102.60;2227.20
70151;DHT22;57517;43.562;19.540;2024-01-25T06:11:52;102.70;2227.20
70151;DHT22;57517;43.562;19.540;2024-01-25T06:14:18;102.70;2227.20
70151;DHT22;57517;43.562;19.540;2024-01-25T06:16:44;102.80;2227.20
70151;DHT22;57517;43.562;19.540;2024-01-25T06:19:10;102.90;2227.20
70151;DHT22;57517;43.562;19.540;2024-01-25T06:21:36;102.80;2227.20
70151;DHT22;57517;43.562;19.540;2024-01-25T06:24:06;102.80;2227.20
70151;DHT22;57517;43.562;19.540;2024-01-25T06:26:31;102.80;2227.20
70151;DHT22;57517;43.562;19.540;2024-01-25T06:28:57;102.80;2227.20
70151;DHT22;57517;43.562;19.540;2024-01-25T06:31:24;102.80;2227.20
70151;DHT22;57517;43.562;19.540;2024-01-25T06:33:50;102.80;2227.20
70151;DHT22;57517;43.562;19.540;2024-01-25T06:36:21;102.80;2227.20
70151;DHT22;57517;43.562;19.540;2024-01-25T06:38:47;102.90;2227.20
70151;DHT22;57517;43.562;19.540;2024-01-25T06:41:13;102.80;2227.20
70151;DHT22;57517;43.562;19.540;2024-01-25T06:43:40;102.60;2227.20
70151;DHT22;57517;43.562;19.540;2024-01-25T06:46:07;102.70;2227.20
70151;DHT22;57517;43.562;19.540;2024-01-25T06:48:34;102.70;2227.20
70151;DHT22;57517;43.562;19.540;2024-01-25T06:51:00;102.80;2227.20
70151;DHT22;57517;43.562;19.540;2024-01-25T06:53:29;102.90;2227.20
70151;DHT22;57517;43.562;19.540;2024-01-25T06:55:55;103.10;2227.20
70151;DHT22;57517;43.562;19.540;2024-01-25T06:58:20;103.20;2227.20
70151;DHT22;57517;43.562;19.540;2024-01-25T07:00:46;103.30;2227.20
70151;DHT22;57517;43.562;19.540;2024-01-25T07:03:12;103.10;2227.20
70151;DHT22;57517;43.562;19.540;2024-01-25T07:05:38;103.20;2227.20
70151;DHT22;57517;43.562;19.540;2024-01-25T07:08:04;103.10;2227.20
70151;DHT22;57517;43.562;19.540;2024-01-25T07:10:31;103.10;2227.20
70151;DHT22;57517;43.562;19.540;2024-01-25T07:12:57;103.00;2227.20
70151;DHT22;57517;43.562;19.540;2024-01-25T07:15:23;103.00;2227.20
70151;DHT22;57517;43.562;19.540;2024-01-25T07:17:48;103.00;2227.20
70151;DHT22;57517;43.562;19.540;2024-01-25T07:20:14;103.00;2227.20
70151;DHT22;57517;43.562;19.540;2024-01-25T07:22:40;103.10;2227.20
70151;DHT22;57517;43.562;19.540;2024-01-25T07:25:06;103.30;2227.20
70151;DHT22;57517;43.562;19.540;2024-01-25T07:27:32;103.20;2227.20
70151;DHT22;57517;43.562;19.540;2024-01-25T07:29:58;103.30;2227.20
70151;DHT22;57517;43.562;19.540;2024-01-25T07:32:24;128.00;2252.80
70151;DHT22;57517;43.562;19.540;2024-01-25T07:34:50;128.10;2252.80
70151;DHT22;57517;43.562;19.540;2024-01-25T07:37:16;128.20;2252.80
70151;DHT22;57517;43.562;19.540;2024-01-25T07:39:44;128.20;2252.80
70151;DHT22;57517;43.562;19.540;2024-01-25T07:42:10;128.20;2252.80
70151;DHT22;57517;43.562;19.540;2024-01-25T07:44:35;128.20;2252.80
70151;DHT22;57517;43.562;19.540;2024-01-25T07:47:01;128.20;2252.80
70151;DHT22;57517;43.562;19.540;2024-01-25T07:49:28;128.30;2252.80
70151;DHT22;57517;43.562;19.540;2024-01-25T07:51:54;128.30;2252.80
70151;DHT22;57517;43.562;19.540;2024-01-25T07:54:22;128.30;2252.80
70151;DHT22;57517;43.562;19.540;2024-01-25T07:56:48;128.30;2252.80
70151;DHT22;57517;43.562;19.540;2024-01-25T07:59:13;128.40;2252.80
70151;DHT22;57517;43.562;19.540;2024-01-25T08:01:39;128.30;2252.80
70151;DHT22;57517;43.562;19.540;2024-01-25T08:04:05;128.20;2252.80
70151;DHT22;57517;43.562;19.540;2024-01-25T08:06:31;128.50;2252.80
70151;DHT22;57517;43.562;19.540;2024-01-25T08:08:57;128.30;2252.80
70151;DHT22;57517;43.562;19.540;2024-01-25T08:11:23;128.20;2252.80
70151;DHT22;57517;43.562;19.540;2024-01-25T08:13:49;128.20;2252.80
70151;DHT22;57517;43.562;19.540;2024-01-25T08:16:15;128.20;2252.80
70151;DHT22;57517;43.562;19.540;2024-01-25T08:18:48;128.30;2252.80
70151;DHT22;57517;43.562;19.540;2024-01-25T08:21:14;128.50;2252.80
70151;DHT22;57517;43.562;19.540;2024-01-25T08:23:40;128.70;2252.80
70151;DHT22;57517;43.562;19.540;2024-01-25T08:26:07;128.70;2252.80
70151;DHT22;57517;43.562;19.540;2024-01-25T08:28:42;128.70;2252.80
70151;DHT22;57517;43.562;19.540;2024-01-25T08:31:11;128.80;2252.80
70151;DHT22;57517;43.562;19.540;2024-01-25T08:33:39;153.60;2252.80
70151;DHT22;57517;43.562;19.540;2024-01-25T08:36:07;153.60;2252.80
70151;DHT22;57517;43.562;19.540;2024-01-25T08:38:33;153.60;2252.80
70151;DHT22;57517;43.562;19.540;2024-01-25T08:40:59;128.90;2252.80
70151;DHT22;57517;43.562;19.540;2024-01-25T08:43:24;128.90;2252.80
70151;DHT22;57517;43.562;19.540;2024-01-25T08:45:50;153.70;2252.80
70151;DHT22;57517;43.562;19.540;2024-01-25T08:48:16;128.90;2252.80
70151;DHT22;57517;43.562;19.540;2024-01-25T08:50:42;153.60;2252.80
70151;DHT22;57517;43.562;19.540;2024-01-25T08:53:08;153.70;2252.80
70151;DHT22;57517;43.562;19.540;2024-01-25T08:55:33;153.90;2252.80
70151;DHT22;57517;43.562;19.540;2024-01-25T08:57:59;154.20;2252.80
70151;DHT22;57517;43.562;19.540;2024-01-25T09:00:25;154.40;2252.80
70151;DHT22;57517;43.562;19.540;2024-01-25T09:02:51;154.50;2252.80
70151;DHT22;57517;43.562;19.540;2024-01-25T09:05:16;179.20;2252.80
70151;DHT22;57517;43.562;19.540;2024-01-25T09:07:42;154.40;2252.80
70151;DHT22;57517;43.562;19.540;2024-01-25T09:10:08;154.30;2252.80
70151;DHT22;57517;43.562;19.540;2024-01-25T09:12:35;154.30;2252.80
70151;DHT22;57517;43.562;19.540;2024-01-25T09:15:01;154.10;2252.80
70151;DHT22;57517;43.562;19.540;2024-01-25T09:17:28;154.00;2252.80
70151;DHT22;57517;43.562;19.540;2024-01-25T09:19:53;153.90;2252.80
70151;DHT22;57517;43.562;19.540;2024-01-25T09:22:19;154.00;2252.80
70151;DHT22;57517;43.562;19.540;2024-01-25T09:24:46;153.80;2252.80
70151;DHT22;57517;43.562;19.540;2024-01-25T09:27:12;128.90;2252.80
70151;DHT22;57517;43.562;19.540;2024-01-25T09:29:39;128.80;2252.80
70151;DHT22;57517;43.562;19.540;2024-01-25T09:32:08;128.80;2252.80
70151;DHT22;57517;43.562;19.540;2024-01-25T09:34:37;128.80;2252.80
70151;DHT22;57517;43.562;19.540;2024-01-25T09:37:03;128.90;2252.80
70151;DHT22;57517;43.562;19.540;2024-01-25T09:39:29;153.70;2252.80
70151;DHT22;57517;43.562;19.540;2024-01-25T09:41:55;153.80;2252.80
70151;DHT22;57517;43.562;19.540;2024-01-25T09:44:21;153.90;2252.80
70151;DHT22;57517;43.562;19.540;2024-01-25T09:46:47;154.10;2252.80
70151;DHT22;57517;43.562;19.540;2024-01-25T09:49:12;154.20;2252.80
70151;DHT22;57517;43.562;19.540;2024-01-25T09:51:40;154.30;2252.80
70151;DHT22;57517;43.562;19.540;2024-01-25T09:54:07;154.30;2252.80
70151;DHT22;57517;43.562;19.540;2024-01-25T09:56:34;154.10;2252.80
70151;DHT22;57517;43.562;19.540;2024-01-25T09:59:00;153.90;2252.80
70151;DHT22;57517;43.562;19.540;2024-01-25T10:01:27;153.90;2252.80
70151;DHT22;57517;43.562;19.540;2024-01-25T10:03:53;154.00;2252.80
70151;DHT22;57517;43.562;19.540;2024-01-25T10:06:21;154.30;2252.80
70151;DHT22;57517;43.562;19.540;2024-01-25T10:08:48;154.50;2252.80
70151;DHT22;57517;43.562;19.540;2024-01-25T10:11:14;179.40;2252.80
70151;DHT22;57517;43.562;19.540;2024-01-25T10:13:49;179.50;2252.80
70151;DHT22;57517;43.562;19.540;2024-01-25T10:16:20;179.50;2252.80
70151;DHT22;57517;43.562;19.540;2024-01-25T10:18:47;179.50;2252.80
70151;DHT22;57517;43.562;19.540;2024-01-25T10:21:14;179.50;2252.80
70151;DHT22;57517;43.562;19.540;2024-01-25T10:23:40;179.50;2227.20
70151;DHT22;57517;43.562;19.540;2024-01-25T10:26:08;179.60;2227.20
70151;DHT22;57517;43.562;19.540;2024-01-25T10:28:34;179.70;2227.20
70151;DHT22;57517;43.562;19.540;2024-01-25T10:31:01;179.70;2201.60
70151;DHT22;57517;43.562;19.540;2024-01-25T10:33:30;179.40;2252.80
70151;DHT22;57517;43.562;19.540;2024-01-25T10:35:59;179.60;2252.80
70151;DHT22;57517;43.562;19.540;2024-01-25T10:38:36;179.90;2227.20
70151;DHT22;57517;43.562;19.540;2024-01-25T10:41:04;179.90;2201.60
70151;DHT22;57517;43.562;19.540;2024-01-25T10:43:31;180.10;2201.60
70151;DHT22;57517;43.562;19.540;2024-01-25T10:45:57;205.00;2124.80
70151;DHT22;57517;43.562;19.540;2024-01-25T10:48:27;205.20;2022.40
70151;DHT22;57517;43.562;19.540;2024-01-25T10:50:55;205.40;2022.40
70151;DHT22;57517;43.562;19.540;2024-01-25T10:53:23;205.60;1945.60
70151;DHT22;57517;43.562;19.540;2024-01-25T10:55:49;230.40;1945.60
70151;DHT22;57517;43.562;19.540;2024-01-25T10:58:16;230.50;1920.00
70151;DHT22;57517;43.562;19.540;2024-01-25T11:00:52;230.40;1920.00
70151;DHT22;57517;43.562;19.540;2024-01-25T11:03:25;205.50;1971.20
70151;DHT22;57517;43.562;19.540;2024-01-25T11:05:51;205.40;1971.20
70151;DHT22;57517;43.562;19.540;2024-01-25T11:08:19;205.30;2022.40
70151;DHT22;57517;43.562;19.540;2024-01-25T11:10:50;204.90;2022.40
70151;DHT22;57517;43.562;19.540;2024-01-25T11:13:28;204.90;2022.40
70151;DHT22;57517;43.562;19.540;2024-01-25T11:15:55;205.00;2022.40
70151;DHT22;57517;43.562;19.540;2024-01-25T11:18:25;205.10;2022.40
70151;DHT22;57517;43.562;19.540;2024-01-25T11:20:51;230.60;1894.40
70151;DHT22;57517;43.562;19.540;2024-01-25T11:23:17;333.20;1612.80
70151;DHT22;57517;43.562;19.540;2024-01-25T11:25:47;410.30;1280.00
70151;DHT22;57517;43.562;19.540;2024-01-25T11:28:14;435.90;1177.60
70151;DHT22;57517;43.562;19.540;2024-01-25T11:30:45;384.10;1280.00
70151;DHT22;57517;43.562;19.540;2024-01-25T11:33:13;333.30;1408.00
70151;DHT22;57517;43.562;19.540;2024-01-25T11:35:39;307.50;1510.40
70151;DHT22;57517;43.562;19.540;2024-01-25T11:38:07;281.80;1561.60
70151;DHT22;57517;43.562;19.540;2024-01-25T11:40:33;256.30;1664.00
70151;DHT22;57517;43.562;19.540;2024-01-25T11:43:01;256.20;1689.60
70151;DHT22;57517;43.562;19.540;2024-01-25T11:45:27;256.20;1740.80
70151;DHT22;57517;43.562;19.540;2024-01-25T11:47:54;256.20;1792.00
70151;DHT22;57517;43.562;19.540;2024-01-25T11:50:20;256.00;1792.00
70151;DHT22;57517;43.562;19.540;2024-01-25T11:52:48;256.20;1868.80
70151;DHT22;57517;43.562;19.540;2024-01-25T11:55:14;256.40;1843.20
70151;DHT22;57517;43.562;19.540;2024-01-25T11:57:42;256.40;1817.60
70151;DHT22;57517;43.562;19.540;2024-01-25T12:00:10;256.40;1792.00
70151;DHT22;57517;43.562;19.540;2024-01-25T12:02:38;256.30;1792.00
70151;DHT22;57517;43.562;19.540;2024-01-25T12:05:05;256.20;1792.00
70151;DHT22;57517;43.562;19.540;2024-01-25T12:07:32;256.00;1868.80
70151;DHT22;57517;43.562;19.540;2024-01-25T12:09:59;231.30;1894.40
70151;DHT22;57517;43.562;19.540;2024-01-25T12:12:26;231.20;1868.80
70151;DHT22;57517;43.562;19.540;2024-01-25T12:15:00;231.10;1868.80
70151;DHT22;57517;43.562;19.540;2024-01-25T12:17:27;231.10;1868.80
70151;DHT22;57517;43.562;19.540;2024-01-25T12:19:57;231.20;1868.80
70151;DHT22;57517;43.562;19.540;2024-01-25T12:22:32;231.30;1920.00
70151;DHT22;57517;43.562;19.540;2024-01-25T12:24:58;256.00;1843.20
70151;DHT22;57517;43.562;19.540;2024-01-25T12:27:25;231.30;1792.00
70151;DHT22;57517;43.562;19.540;2024-01-25T12:29:52;256.10;1817.60
70151;DHT22;57517;43.562;19.540;2024-01-25T12:32:20;256.10;1817.60
70151;DHT22;57517;43.562;19.540;2024-01-25T12:34:56;256.10;1843.20
70151;DHT22;57517;43.562;19.540;2024-01-25T12:37:23;231.20;1843.20
70151;DHT22;57517;43.562;19.540;2024-01-25T12:39:51;231.00;1868.80
70151;DHT22;57517;43.562;19.540;2024-01-25T12:42:17;230.90;1894.40
70151;DHT22;57517;43.562;19.540;2024-01-25T12:44:43;230.90;1894.40
70151;DHT22;57517;43.562;19.540;2024-01-25T12:47:09;230.70;1894.40
70151;DHT22;57517;43.562;19.540;2024-01-25T12:49:35;230.70;1920.00
70151;DHT22;57517;43.562;19.540;2024-01-25T12:52:01;230.90;1920.00
70151;DHT22;57517;43.562;19.540;2024-01-25T12:54:27;230.90;1945.60
70151;DHT22;57517;43.562;19.540;2024-01-25T12:56:54;231.10;1945.60
70151;DHT22;57517;43.562;19.540;2024-01-25T12:59:20;231.10;1920.00
70151;DHT22;57517;43.562;19.540;2024-01-25T13:01:46;230.90;1945.60
70151;DHT22;57517;43.562;19.540;2024-01-25T13:04:12;230.90;1971.20
70151;DHT22;57517;43.562;19.540;2024-01-25T13:06:37;231.20;1945.60
70151;DHT22;57517;43.562;19.540;2024-01-25T13:09:03;256.00;1894.40
70151;DHT22;57517;43.562;19.540;2024-01-25T13:11:29;256.00;1894.40
70151;DHT22;57517;43.562;19.540;2024-01-25T13:13:55;256.10;1894.40
70151;DHT22;57517;43.562;19.540;2024-01-25T13:16:21;256.10;1894.40
70151;DHT22;57517;43.562;19.540;2024-01-25T13:18:47;256.20;1868.80
70151;DHT22;57517;43.562;19.540;2024-01-25T13:21:13;256.10;1868.80
70151;DHT22;57517;43.562;19.540;2024-01-25T13:23:39;231.20;1894.40
70151;DHT22;57517;43.562;19.540;2024-01-25T13:26:04;231.20;1920.00
70151;DHT22;57517;43.562;19.540;2024-01-25T13:28:30;231.20;1920.00
70151;DHT22;57517;43.562;19.540;2024-01-25T13:30:57;231.10;1945.60
70151;DHT22;57517;43.562;19.540;2024-01-25T13:33:24;231.00;1971.20
70151;DHT22;57517;43.562;19.540;2024-01-25T13:35:50;231.00;1971.20
70151;DHT22;57517;43.562;19.540;2024-01-25T13:38:16;231.10;1945.60
70151;DHT22;57517;43.562;19.540;2024-01-25T13:40:42;230.90;1971.20
70151;DHT22;57517;43.562;19.540;2024-01-25T13:43:08;230.80;1996.80
70151;DHT22;57517;43.562;19.540;2024-01-25T13:45:34;230.90;1996.80
70151;DHT22;57517;43.562;19.540;2024-01-25T13:47:59;230.90;2022.40
70151;DHT22;57517;43.562;19.540;2024-01-25T13:50:25;230.90;2022.40
70151;DHT22;57517;43.562;19.540;2024-01-25T13:52:51;230.90;2073.60
70151;DHT22;57517;43.562;19.540;2024-01-25T13:55:17;230.80;2048.00
70151;DHT22;57517;43.562;19.540;2024-01-25T13:57:43;230.80;2124.80
70151;DHT22;57517;43.562;19.540;2024-01-25T14:00:09;230.90;2176.00
70151;DHT22;57517;43.562;19.540;2024-01-25T14:02:35;230.90;2124.80
70151;DHT22;57517;43.562;19.540;2024-01-25T14:05:01;230.90;2073.60
70151;DHT22;57517;43.562;19.540;2024-01-25T14:07:27;230.90;2073.60
70151;DHT22;57517;43.562;19.540;2024-01-25T14:09:53;230.90;2073.60
70151;DHT22;57517;43.562;19.540;2024-01-25T14:12:19;230.90;2073.60
70151;DHT22;57517;43.562;19.540;2024-01-25T14:14:45;230.70;2048.00
70151;DHT22;57517;43.562;19.540;2024-01-25T14:17:11;230.50;2124.80
70151;DHT22;57517;43.562;19.540;2024-01-25T14:19:37;230.40;2124.80
70151;DHT22;57517;43.562;19.540;2024-01-25T14:22:03;205.70;2176.00
70151;DHT22;57517;43.562;19.540;2024-01-25T14:24:28;230.40;2176.00
70151;DHT22;57517;43.562;19.540;2024-01-25T14:26:54;205.40;2252.80
70151;DHT22;57517;43.562;19.540;2024-01-25T14:29:20;205.30;2252.80
70151;DHT22;57517;43.562;19.540;2024-01-25T14:31:46;205.20;2252.80
70151;DHT22;57517;43.562;19.540;2024-01-25T14:34:12;205.20;2252.80